Airfield :
LOGIN :

Register | Disclaimer

   EN    FR    IT 

 










Legend :    VFR   Marginal VFR   IFR   Intensive IFR   Very Intensive IFR
Visi :
Ceiling :
>= 8 km
>= 3000ft
5 to 8 km
1000 to 3000 ft
1500m to 5 km
500 to 1000 ft
800 to 1500m
200 to 500 ft
< 800m
< 200 ft
Symbols :   Thunderstorms  Fog  Heavy snow  Heavy precipitations  Wind > 20 kt
SIGMETs :     Misc.  Thunderstorms  Icing  Turbulence  Mountain Waves  Volcanic Ashes






- Airport Elevation : 2077 ft
- IATA code : FMM


EDJA - Memmingen

CURRENT METAR :
  • 230820Z 04006KT 010V070 9999 FEW020 15/11 Q1016

EXPIRED METARs :
  • 230750Z 01007KT 9999 FEW007 14/11 Q1017
  • 230720Z 03005KT 9999 FEW014 14/11 Q1017
  • 230650Z VRB01KT CAVOK 14/10 Q1017
  • 230620Z VRB01KT CAVOK 13/10 Q1017
  • 230550Z 00000KT CAVOK 13/10 Q1017
  • 230520Z 00000KT CAVOK 12/11 Q1016
  • 230450Z VRB01KT 9999 FEW002 09/09 Q1016
  • 230420Z VRB01KT 9999 FEW002 08/07 Q1016

TAF TAF EDJA
Valid from the 23 at 09:00 until the 23 at 18:00 UTC


230800Z 2309/2318 03005KT 9999 FEW020
TEMPO 2312/2316 24020G35KT 4000 TSRA BKN008CB
BECMG 2316/2318 26005KT
TEMPO 2316/2318 RA BKN005



MET'MAP, your aeronautical weather chart ! - Copyright ORBIFLY December 2007 - Disclaimer

ORBIFLY MET'MAP TEAM :

Programming & Development : Alexandra Zaïnal
Original concept : Baudouin d'Aumeries
Technical & hardware support : Manuel Goepfert
Assistance : Marc-Olivier Méhu




SOURCES & CREDITS :

   NOAA